Time;durP1;ratioP1;P1;durP2;ratioP2;P2;SDS_P1;SDS_P2;PMS_P1;PMS_P2;Temp;Humidity;BMP_temperature;BMP_pressure;BME280_temperature;BME280_humidity;BME280_pressure;Samples;Min_cycle;Max_cycle;Signal;HPM_P1;HPM_P2
2021/12/11 00:00:28;;;;;;;;;;;;;;;-9.79;100.00;101803.00;5076092;28;20087;-70
2021/12/11 00:03:20;;;;;;;13.95;4.55;;;;;;;-9.86;100.00;101800.66;5062183;28;19966;-67
2021/12/11 00:06:15;;;;;;;13.38;4.38;;;;;;;-9.84;100.00;101799.13;5059794;28;20055;-67
2021/12/11 00:09:10;;;;;;;9.02;4.10;;;;;;;-9.80;100.00;101816.59;5083271;28;20085;-69
2021/12/11 00:12:04;;;;;;;10.05;4.10;;;;;;;-9.89;100.00;101811.56;5071039;28;20055;-65
2021/12/11 00:15:15;;;;;;;8.80;3.92;;;;;;;-9.77;100.00;101809.19;5088590;28;20097;-65
2021/12/11 00:18:04;;;;;;;14.95;4.68;;;;;;;-9.87;100.00;101801.41;5076864;28;20114;-64
2021/12/11 00:21:16;;;;;;;13.45;5.05;;;;;;;-9.87;100.00;101807.44;5048821;28;20055;-69
2021/12/11 00:24:09;;;;;;;10.32;4.07;;;;;;;-9.88;100.00;101815.00;5042776;28;20055;-73
2021/12/11 00:26:59;;;;;;;9.30;4.38;;;;;;;-9.99;100.00;101815.66;5071112;28;20054;-68
2021/12/11 00:29:45;;;;;;;8.77;4.45;;;;;;;-9.93;100.00;101814.59;5071241;28;20599;-68
2021/12/11 00:32:33;;;;;;;12.15;4.63;;;;;;;-9.86;100.00;101803.22;5086273;28;20065;-72
2021/12/11 00:35:22;;;;;;;12.32;5.20;;;;;;;-9.90;100.00;101790.88;5086694;28;20090;-67
2021/12/11 00:38:11;;;;;;;8.20;4.22;;;;;;;-9.85;100.00;101794.78;5065626;28;20179;-68
2021/12/11 00:40:56;;;;;;;9.40;3.50;;;;;;;-10.07;100.00;101789.38;5065342;28;20544;-70
2021/12/11 00:43:43;;;;;;;13.20;4.18;;;;;;;-10.08;100.00;101800.38;5085366;28;20424;-68
2021/12/11 00:46:30;;;;;;;10.98;4.20;;;;;;;-10.08;100.00;101807.16;5094768;28;20535;-71
2021/12/11 00:49:19;;;;;;;11.40;4.32;;;;;;;-10.07;100.00;101815.00;5077244;28;20553;-66
2021/12/11 00:52:04;;;;;;;9.75;3.72;;;;;;;-10.01;100.00;101819.78;5088826;28;20062;-67
2021/12/11 00:54:49;;;;;;;10.63;4.25;;;;;;;-10.08;100.00;101823.47;5074948;28;20055;-64
2021/12/11 00:57:33;;;;;;;12.25;4.50;;;;;;;-10.03;100.00;101824.75;5081179;28;20415;-64
2021/12/11 01:00:23;;;;;;;8.38;4.05;;;;;;;-9.94;100.00;101828.16;5099170;28;20419;-72
2021/12/11 01:03:09;;;;;;;10.93;4.53;;;;;;;-9.88;100.00;101828.75;5055990;28;20088;-67
2021/12/11 01:06:01;;;;;;;10.60;4.30;;;;;;;-10.05;100.00;101831.47;5079429;28;20059;-68
2021/12/11 01:08:55;;;;;;;11.25;3.90;;;;;;;-10.04;100.00;101829.75;5083607;28;20047;-70
2021/12/11 01:11:46;;;;;;;12.90;4.50;;;;;;;-10.07;100.00;101835.53;5088941;28;20082;-69
2021/12/11 01:14:39;;;;;;;11.13;4.38;;;;;;;-10.21;100.00;101828.22;5089237;28;20098;-66
2021/12/11 01:17:59;;;;;;;13.00;3.90;;;;;;;-10.19;100.00;101821.56;5076611;28;20042;-68
2021/12/11 01:20:55;;;;;;;7.95;3.70;;;;;;;-10.28;100.00;101824.94;5077322;28;20631;-72
2021/12/11 01:23:57;;;;;;;9.70;3.72;;;;;;;-10.23;100.00;101819.47;5076240;28;20039;-67
2021/12/11 01:26:52;;;;;;;10.13;4.30;;;;;;;-10.44;100.00;101813.22;5065639;28;20073;-64
2021/12/11 01:29:37;;;;;;;8.75;3.92;;;;;;;-10.44;100.00;101820.03;5095434;28;20054;-64
2021/12/11 01:32:23;;;;;;;10.30;4.53;;;;;;;-10.57;100.00;101801.66;5074596;28;20738;-64
2021/12/11 01:35:13;;;;;;;10.23;4.65;;;;;;;-10.44;100.00;101808.09;5066119;28;20039;-63
2021/12/11 01:38:14;;;;;;;9.35;4.45;;;;;;;-10.38;100.00;101799.19;5037481;28;20051;-64
2021/12/11 01:41:03;;;;;;;15.27;4.85;;;;;;;-10.55;100.00;101805.28;5085518;28;20051;-72
2021/12/11 01:43:52;;;;;;;10.52;4.80;;;;;;;-10.53;100.00;101808.88;5068355;28;20137;-65
2021/12/11 01:46:38;;;;;;;12.73;4.72;;;;;;;-10.48;100.00;101823.06;5050056;28;20138;-63
2021/12/11 01:49:23;;;;;;;8.18;3.58;;;;;;;-10.51;100.00;101821.13;5070113;28;20055;-64
2021/12/11 01:52:37;;;;;;;11.93;4.47;;;;;;;-10.51;100.00;101830.44;5055944;28;20048;-65
2021/12/11 01:55:39;;;;;;;11.43;3.92;;;;;;;-10.58;100.00;101825.50;5102554;28;20046;-64
2021/12/11 01:58:36;;;;;;;13.77;4.43;;;;;;;-10.73;100.00;101819.81;5059326;28;20873;-66
2021/12/11 02:01:44;;;;;;;15.18;4.75;;;;;;;-10.72;100.00;101829.31;5070982;28;20108;-71
2021/12/11 02:04:30;;;;;;;8.30;4.00;;;;;;;-10.78;100.00;101823.63;5074694;28;20097;-64
2021/12/11 02:07:22;;;;;;;9.23;3.90;;;;;;;-10.66;100.00;101829.00;5066032;28;20213;-70
2021/12/11 02:10:19;;;;;;;10.90;4.18;;;;;;;-10.55;100.00;101831.84;5076536;28;20465;-64
2021/12/11 02:13:09;;;;;;;12.10;4.18;;;;;;;-10.65;100.00;101828.22;5065485;28;20056;-70
2021/12/11 02:15:54;;;;;;;9.52;3.90;;;;;;;-10.63;100.00;101830.22;5075939;28;20058;-63
2021/12/11 02:18:44;;;;;;;9.23;4.00;;;;;;;-10.63;100.00;101824.16;5076275;28;20061;-62
2021/12/11 02:21:35;;;;;;;13.57;4.28;;;;;;;-10.70;100.00;101826.88;5083059;28;20054;-68
2021/12/11 02:24:23;;;;;;;11.32;4.65;;;;;;;-10.81;100.00;101822.41;5076561;28;20074;-68
2021/12/11 02:27:18;;;;;;;8.20;3.65;;;;;;;-10.84;100.00;101817.88;5088883;28;20067;-65
2021/12/11 02:30:23;;;;;;;;;;;;;;;-10.75;100.00;101818.78;5095396;28;20062;-68
2021/12/11 02:33:22;;;;;;;10.13;4.57;;;;;;;-10.74;100.00;101822.22;5070829;28;20506;-67
2021/12/11 02:36:23;;;;;;;8.60;4.47;;;;;;;-10.76;100.00;101816.97;5099268;28;20128;-65
2021/12/11 02:42:19;;;;;;;9.55;3.70;;;;;;;-10.99;100.00;101831.78;4992997;28;20467;-66
2021/12/11 02:45:16;;;;;;;11.88;4.13;;;;;;;-10.96;100.00;101836.31;5015908;28;20040;-69
2021/12/11 02:48:11;;;;;;;12.65;4.03;;;;;;;-10.91;100.00;101840.22;5023780;28;20060;-70
2021/12/11 02:51:04;;;;;;;8.32;3.65;;;;;;;-10.99;100.00;101844.56;5026010;28;20175;-66
2021/12/11 02:53:55;;;;;;;10.65;4.60;;;;;;;-10.98;100.00;101848.97;5022678;28;20079;-66
2021/12/11 02:56:56;;;;;;;9.07;3.85;;;;;;;-10.91;100.00;101842.78;5036191;28;20088;-69
2021/12/11 02:59:44;;;;;;;12.73;3.97;;;;;;;-11.00;100.00;101847.91;5021000;28;20052;-67
2021/12/11 03:02:30;;;;;;;10.32;4.50;;;;;;;-10.95;100.00;101853.47;5025349;28;20044;-65
2021/12/11 03:05:21;;;;;;;11.60;3.97;;;;;;;-10.97;100.00;101844.72;5028482;28;20476;-69
2021/12/11 03:08:09;;;;;;;10.18;4.40;;;;;;;-11.02;100.00;101846.88;5027371;28;20064;-69
2021/12/11 03:10:59;;;;;;;9.45;4.30;;;;;;;-10.94;100.00;101845.94;5020672;28;20177;-69
2021/12/11 03:13:50;;;;;;;11.10;4.53;;;;;;;-10.85;100.00;101848.47;5025426;28;20068;-69
2021/12/11 03:16:37;;;;;;;14.02;4.35;;;;;;;-10.86;100.00;101839.91;5025068;28;20079;-68
2021/12/11 03:19:31;;;;;;;14.00;4.95;;;;;;;-10.88;100.00;101838.84;5028770;28;20555;-66
2021/12/11 03:22:20;;;;;;;11.88;4.30;;;;;;;-10.99;100.00;101839.47;5016890;28;20429;-65
2021/12/11 03:25:10;;;;;;;13.00;5.20;;;;;;;-11.05;100.00;101843.09;5026794;28;20107;-68
2021/12/11 03:27:57;;;;;;;12.73;4.68;;;;;;;-11.06;100.00;101839.66;5016835;28;20405;-68
2021/12/11 03:30:56;;;;;;;12.23;4.18;;;;;;;-11.00;100.00;101835.09;5026196;28;20092;-68
2021/12/11 03:33:45;;;;;;;8.27;4.18;;;;;;;-11.05;100.00;101835.41;5004001;28;20092;-72
2021/12/11 03:36:33;;;;;;;8.18;3.63;;;;;;;-11.15;100.00;101828.50;5028482;28;20128;-68
2021/12/11 03:39:24;;;;;;;9.27;3.88;;;;;;;-11.16;99.80;101839.50;5007759;28;20048;-67
2021/12/11 03:42:18;;;;;;;14.32;4.57;;;;;;;-11.30;100.00;101841.47;5012719;28;20424;-65
2021/12/11 03:45:11;;;;;;;11.25;4.63;;;;;;;-11.38;100.00;101838.16;5022144;28;20167;-69
2021/12/11 03:48:03;;;;;;;9.82;4.60;;;;;;;-11.44;100.00;101832.44;5025780;28;20044;-71
2021/12/11 03:50:48;;;;;;;10.57;3.97;;;;;;;-11.44;100.00;101847.78;5024879;28;20052;-67
2021/12/11 03:53:33;;;;;;;9.80;4.10;;;;;;;-11.47;100.00;101831.25;5031451;28;20500;-67
2021/12/11 03:56:18;;;;;;;;;;;;;;;-11.44;100.00;101829.88;5014302;28;20061;-67
2021/12/11 03:59:09;;;;;;;10.27;4.40;;;;;;;-11.52;100.00;101830.78;5020086;28;19974;-68
2021/12/11 04:02:11;;;;;;;10.68;4.00;;;;;;;-11.53;100.00;101833.19;5026277;28;20048;-68
2021/12/11 04:05:00;;;;;;;11.48;4.20;;;;;;;-11.50;100.00;101836.97;5031179;28;20048;-67
2021/12/11 04:07:50;;;;;;;10.23;3.65;;;;;;;-11.42;100.00;101838.63;5017909;28;20052;-68
2021/12/11 04:10:36;;;;;;;11.35;4.00;;;;;;;-11.53;100.00;101838.28;5019987;28;20158;-74
2021/12/11 04:13:22;;;;;;;9.75;4.05;;;;;;;-11.63;100.00;101840.75;5012851;28;20572;-68
2021/12/11 04:16:15;;;;;;;11.63;4.72;;;;;;;-11.51;100.00;101831.69;4981412;28;20099;-70
2021/12/11 04:19:08;;;;;;;11.93;4.75;;;;;;;-11.51;100.00;101830.00;5015257;28;20052;-72
2021/12/11 04:21:55;;;;;;;14.02;4.18;;;;;;;-11.57;100.00;101838.75;5026094;28;20532;-67
2021/12/11 04:24:42;;;;;;;11.20;4.70;;;;;;;-11.59;100.00;101836.03;5018199;28;20102;-65
2021/12/11 04:27:27;;;;;;;9.43;4.28;;;;;;;-11.53;100.00;101843.41;5012283;28;20059;-67
2021/12/11 04:30:15;;;;;;;8.13;3.75;;;;;;;-11.47;100.00;101834.69;5027944;28;20048;-66
2021/12/11 04:33:00;;;;;;;12.68;4.50;;;;;;;-11.45;99.33;101835.75;5024684;28;20700;-71
2021/12/11 04:35:45;;;;;;;10.15;4.20;;;;;;;-11.52;99.88;101824.78;5018816;28;20733;-66
2021/12/11 04:38:30;;;;;;;13.20;4.47;;;;;;;-11.59;99.51;101815.56;5023055;28;20052;-67
2021/12/11 04:41:21;;;;;;;13.30;4.38;;;;;;;-11.59;99.61;101812.13;5021397;28;20063;-69
2021/12/11 04:44:11;;;;;;;10.23;4.07;;;;;;;-11.43;99.46;101824.00;5028104;28;20552;-70
2021/12/11 04:46:56;;;;;;;9.77;4.28;;;;;;;-11.54;99.00;101806.72;5023740;28;20095;-71
2021/12/11 04:49:52;;;;;;;10.15;4.60;;;;;;;-11.58;98.85;101814.84;5017898;28;20107;-70
2021/12/11 04:52:52;;;;;;;11.45;4.30;;;;;;;-11.67;98.86;101795.16;5020359;28;20064;-69
2021/12/11 04:58:48;;;;;;;12.23;4.65;;;;;;;-11.75;100.00;101819.06;5017164;28;20052;-66
2021/12/11 05:01:55;;;;;;;11.57;4.80;;;;;;;-11.67;100.00;101824.19;5012065;28;20132;-69
2021/12/11 05:11:00;;;;;;;8.27;3.78;;;;;;;-11.47;100.00;101824.44;4961609;28;20550;-68
2021/12/11 05:13:45;;;;;;;10.07;4.25;;;;;;;-11.47;100.00;101821.00;4958392;28;20624;-64
2021/12/11 05:16:30;;;;;;;12.88;4.47;;;;;;;-11.47;100.00;101819.31;4976751;28;20198;-65
2021/12/11 05:19:15;;;;;;;11.45;4.65;;;;;;;-11.49;100.00;101817.38;4973457;28;20069;-64
2021/12/11 05:22:04;;;;;;;12.88;4.50;;;;;;;-11.38;100.00;101825.38;4953250;28;20042;-66
2021/12/11 05:24:52;;;;;;;12.07;4.32;;;;;;;-11.25;100.00;101828.38;4990449;28;20094;-65
2021/12/11 05:27:39;;;;;;;13.40;4.90;;;;;;;-11.15;100.00;101837.84;4984127;28;20140;-69
2021/12/11 05:30:31;;;;;;;11.25;4.53;;;;;;;-11.06;99.79;101842.22;4976727;28;20058;-63
2021/12/11 05:33:18;;;;;;;11.18;4.13;;;;;;;-10.97;99.90;101831.94;4966458;28;20050;-66
2021/12/11 05:36:06;;;;;;;10.65;4.68;;;;;;;-10.93;99.57;101840.06;4976654;28;20103;-68
2021/12/11 05:38:53;;;;;;;12.75;4.45;;;;;;;-10.93;99.68;101842.63;4957916;28;20093;-67
2021/12/11 05:41:39;;;;;;;8.90;3.63;;;;;;;-10.86;99.08;101839.91;4974178;28;20081;-67
2021/12/11 05:44:27;;;;;;;8.60;3.90;;;;;;;-10.93;99.79;101842.63;4995604;28;20564;-66
2021/12/11 05:47:14;;;;;;;10.15;4.03;;;;;;;-10.91;99.63;101841.09;5030835;28;20204;-65
2021/12/11 05:49:59;;;;;;;10.48;4.20;;;;;;;-10.90;99.80;101836.91;5013131;28;20048;-68
2021/12/11 05:52:44;;;;;;;;;;;;;;;-10.89;99.88;101833.56;5021663;28;20570;-66
2021/12/11 05:55:31;;;;;;;14.25;4.90;;;;;;;-11.05;99.83;101838.88;5029713;28;19928;-65
2021/12/11 05:58:34;;;;;;;14.35;5.38;;;;;;;-11.16;100.00;101834.38;5023684;28;20051;-63
2021/12/11 06:01:25;;;;;;;9.20;4.35;;;;;;;-11.21;100.00;101834.66;5017447;28;20564;-64
2021/12/11 06:04:19;;;;;;;12.27;4.97;;;;;;;-11.17;100.00;101831.66;5018578;28;20110;-62
2021/12/11 06:07:08;;;;;;;9.10;4.53;;;;;;;-11.17;100.00;101822.34;5006132;28;20136;-63
2021/12/11 06:09:57;;;;;;;10.40;4.10;;;;;;;-11.11;100.00;101833.16;5033844;28;20068;-58
2021/12/11 06:12:43;;;;;;;9.43;4.50;;;;;;;-10.99;100.00;101833.44;5021409;28;20128;-59
2021/12/11 06:15:29;;;;;;;12.55;4.78;;;;;;;-10.90;100.00;101839.44;5014727;28;20219;-56
2021/12/11 06:18:18;;;;;;;9.02;4.50;;;;;;;-11.09;99.56;101803.50;5008066;28;20537;-63
2021/12/11 06:21:03;;;;;;;12.00;4.22;;;;;;;-11.07;99.04;101830.13;5030380;28;20552;-70
2021/12/11 06:23:48;;;;;;;10.65;4.18;;;;;;;-11.24;99.65;101832.72;5004813;28;20053;-57
2021/12/11 06:26:33;;;;;;;12.05;4.53;;;;;;;-11.15;99.47;101837.84;5028398;28;20060;-60
2021/12/11 06:29:19;;;;;;;10.30;4.60;;;;;;;-11.29;100.00;101821.16;5033548;28;20531;-61
2021/12/11 06:32:05;;;;;;;11.68;4.75;;;;;;;-11.02;100.00;101845.94;5007879;28;20068;-64
2021/12/11 06:34:51;;;;;;;11.65;4.65;;;;;;;-10.91;99.65;101846.22;5025968;28;20057;-67
2021/12/11 06:37:36;;;;;;;13.43;5.18;;;;;;;-10.75;99.89;101836.72;5018922;28;20084;-62
2021/12/11 06:40:21;;;;;;;12.48;5.00;;;;;;;-10.73;99.20;101849.66;5018177;28;20072;-66
2021/12/11 06:43:07;;;;;;;9.55;4.22;;;;;;;-10.57;99.60;101848.72;5015310;28;20128;-66
2021/12/11 06:45:52;;;;;;;10.98;4.38;;;;;;;-10.50;99.00;101840.84;5015692;28;21081;-61
2021/12/11 06:48:37;;;;;;;10.82;4.75;;;;;;;-10.45;99.47;101842.19;5014648;28;20111;-61
2021/12/11 06:51:22;;;;;;;;;;;;;;;-10.32;99.43;101837.44;5024777;28;20057;-62
2021/12/11 06:54:10;;;;;;;9.15;4.47;;;;;;;-10.21;98.48;101835.91;5019330;28;20285;-73
2021/12/11 06:56:55;;;;;;;7.78;3.95;;;;;;;-10.19;99.08;101830.91;5018805;28;20056;-62
2021/12/11 06:59:40;;;;;;;9.05;4.55;;;;;;;-10.29;98.23;101818.88;5017250;28;20104;-64
2021/12/11 07:02:24;;;;;;;11.77;4.65;;;;;;;-10.05;98.49;101843.38;5007401;28;20366;-64
2021/12/11 07:05:10;;;;;;;8.98;4.15;;;;;;;-9.95;97.64;101844.31;5009111;28;20064;-62
2021/12/11 07:07:54;;;;;;;11.55;4.30;;;;;;;-9.86;96.78;101845.16;5031489;28;20053;-65
2021/12/11 07:10:40;;;;;;;10.68;4.65;;;;;;;-9.80;95.85;101835.47;5026183;28;20085;-66
2021/12/11 07:13:26;;;;;;;11.35;5.03;;;;;;;-9.64;95.83;101848.03;5013317;28;20056;-66
2021/12/11 07:16:11;;;;;;;9.60;4.60;;;;;;;-9.52;95.68;101838.91;5020576;28;20478;-63
2021/12/11 07:18:55;;;;;;;11.55;4.50;;;;;;;-9.42;94.75;101844.13;5019560;28;20065;-64
2021/12/11 07:21:42;;;;;;;11.38;4.55;;;;;;;-9.41;94.59;101854.53;5012001;28;20416;-65
2021/12/11 07:24:37;;;;;;;12.05;4.65;;;;;;;-9.28;94.50;101842.03;5025836;28;20060;-67
2021/12/11 07:27:22;;;;;;;11.20;4.75;;;;;;;-9.24;94.68;101851.81;4988473;28;20048;-65
2021/12/11 07:30:07;;;;;;;8.90;4.95;;;;;;;-9.09;93.60;101854.84;5013109;28;20052;-65
2021/12/11 07:32:55;;;;;;;13.30;5.10;;;;;;;-8.95;93.73;101854.44;5013235;28;20539;-64
2021/12/11 07:35:42;;;;;;;13.63;5.25;;;;;;;-8.84;92.22;101866.56;5014787;28;20060;-66
2021/12/11 07:38:27;;;;;;;10.82;4.60;;;;;;;-8.76;92.22;101853.63;5024676;28;20060;-68
2021/12/11 07:41:15;;;;;;;11.60;5.30;;;;;;;-8.44;91.70;101864.16;5025757;28;20095;-68
2021/12/11 07:44:00;;;;;;;11.40;5.18;;;;;;;-8.22;90.50;101858.47;5025291;28;20119;-65
2021/12/11 07:46:46;;;;;;;10.25;4.65;;;;;;;-7.91;89.79;101859.38;5020503;28;20063;-64
2021/12/11 07:49:31;;;;;;;12.48;4.82;;;;;;;-7.44;88.47;101856.59;5017288;28;20079;-66
2021/12/11 07:52:15;;;;;;;11.23;5.68;;;;;;;-7.07;86.46;101856.28;5020275;28;20642;-68
2021/12/11 07:55:00;;;;;;;13.73;5.22;;;;;;;-6.96;84.46;101846.03;5030476;28;20389;-65
2021/12/11 07:57:45;;;;;;;11.82;5.68;;;;;;;-6.61;82.99;101857.53;5017832;28;20079;-66
2021/12/11 08:00:31;;;;;;;10.63;4.60;;;;;;;-6.41;81.71;101857.47;5015991;28;20067;-66
2021/12/11 08:03:18;;;;;;;12.13;5.80;;;;;;;-6.23;80.48;101847.69;5019361;28;20049;-66
2021/12/11 08:06:05;;;;;;;10.02;4.68;;;;;;;-5.90;79.08;101847.75;5007819;28;20153;-64
2021/12/11 08:08:49;;;;;;;11.55;5.32;;;;;;;-5.33;77.36;101842.72;5014787;28;20068;-66
2021/12/11 08:11:34;;;;;;;10.48;5.25;;;;;;;-5.00;75.89;101841.75;5008628;28;20052;-66
2021/12/11 08:14:21;;;;;;;11.90;5.30;;;;;;;-4.42;72.34;101837.47;5025863;28;20598;-66
2021/12/11 08:17:06;;;;;;;11.57;5.43;;;;;;;-4.34;70.10;101844.09;5021789;28;20115;-66
2021/12/11 08:19:51;;;;;;;14.68;5.63;;;;;;;-3.89;67.28;101842.16;5021387;28;20108;-65
2021/12/11 08:22:37;;;;;;;12.93;5.15;;;;;;;-3.70;65.21;101844.31;4997678;28;20554;-65
2021/12/11 08:25:26;;;;;;;12.15;6.32;;;;;;;-3.37;63.55;101842.34;5022024;28;20176;-64
2021/12/11 08:28:15;;;;;;;10.20;5.13;;;;;;;-2.74;61.89;101846.63;5006935;28;20068;-70
2021/12/11 08:31:00;;;;;;;9.90;4.88;;;;;;;-2.55;59.00;101836.66;5008274;28;20072;-62
2021/12/11 08:33:45;;;;;;;9.27;5.25;;;;;;;-2.14;57.11;101836.69;5006360;28;20073;-64
2021/12/11 08:36:30;;;;;;;11.70;5.07;;;;;;;-1.81;54.09;101838.78;5014392;28;20084;-63
2021/12/11 08:39:20;;;;;;;9.57;4.80;;;;;;;-1.43;52.12;101832.50;5020356;28;20056;-65
2021/12/11 08:42:08;;;;;;;13.38;5.25;;;;;;;-1.05;50.66;101825.28;5008952;28;20092;-72
2021/12/11 08:45:04;;;;;;;9.15;5.05;;;;;;;-0.75;48.73;101839.19;5021649;28;20056;-65
2021/12/11 08:47:55;;;;;;;11.95;5.75;;;;;;;-0.08;45.37;101826.50;5035113;28;20158;-70
2021/12/11 08:50:41;;;;;;;13.15;5.38;;;;;;;0.32;42.68;101817.44;5022314;28;20092;-69
2021/12/11 08:53:27;;;;;;;10.68;5.53;;;;;;;0.83;40.97;101827.09;5024927;28;20628;-63
2021/12/11 08:56:13;;;;;;;11.88;6.07;;;;;;;1.30;39.40;101828.63;5019726;28;20060;-62
2021/12/11 08:58:58;;;;;;;11.70;5.53;;;;;;;1.63;37.15;101824.19;5019192;28;20059;-66
2021/12/11 09:01:55;;;;;;;9.02;5.68;;;;;;;1.99;36.19;101823.31;5025057;28;20168;-64
2021/12/11 09:05:10;;;;;;;9.48;5.32;;;;;;;2.33;35.00;101819.69;5021272;28;20056;-66
2021/12/11 09:08:03;;;;;;;9.63;5.15;;;;;;;2.48;33.55;101814.22;5007484;28;20052;-67
2021/12/11 09:11:04;;;;;;;17.08;6.90;;;;;;;2.80;33.83;101813.91;5005769;28;20044;-66
2021/12/11 09:14:19;;;;;;;11.18;5.93;;;;;;;3.00;32.15;101820.91;5023311;28;20052;-70
2021/12/11 09:17:16;;;;;;;11.10;6.10;;;;;;;2.81;31.78;101815.75;5013212;28;20517;-66
2021/12/11 09:20:19;;;;;;;10.90;6.00;;;;;;;2.89;31.88;101809.09;5028636;28;20059;-67
2021/12/11 09:23:28;;;;;;;9.10;5.03;;;;;;;3.16;31.06;101805.91;4996513;28;20394;-66
2021/12/11 09:26:30;;;;;;;14.02;6.10;;;;;;;3.59;30.82;101801.59;5031362;28;20100;-65
2021/12/11 09:29:33;;;;;;;11.40;6.40;;;;;;;4.11;30.96;101809.75;5005057;28;20052;-66
2021/12/11 09:32:28;;;;;;;10.43;6.30;;;;;;;4.43;29.38;101812.78;5035445;28;20149;-65
2021/12/11 09:35:21;;;;;;;10.35;6.25;;;;;;;4.88;28.98;101813.53;5026178;28;20131;-65
2021/12/11 09:38:22;;;;;;;10.85;5.90;;;;;;;5.14;27.63;101796.03;5022481;28;20076;-66
2021/12/11 09:41:44;;;;;;;11.82;6.05;;;;;;;6.06;26.52;101807.88;5029470;28;20096;-65
2021/12/11 09:44:39;;;;;;;10.52;5.35;;;;;;;6.57;25.50;101802.38;5019150;28;20336;-69
2021/12/11 09:47:30;;;;;;;7.80;5.90;;;;;;;6.90;24.97;101797.16;5013082;28;20121;-68
2021/12/11 09:50:21;;;;;;;11.57;6.55;;;;;;;7.57;24.21;101795.38;5018696;28;20458;-66
2021/12/11 09:53:06;;;;;;;10.18;5.97;;;;;;;8.00;24.36;101793.75;5024290;28;20559;-63
2021/12/11 09:55:51;;;;;;;9.00;5.80;;;;;;;8.29;22.31;101802.38;5024931;28;20126;-65
2021/12/11 09:58:38;;;;;;;10.80;6.35;;;;;;;8.21;22.31;101780.19;5014408;28;20050;-64
2021/12/11 10:01:32;;;;;;;9.27;5.82;;;;;;;8.54;21.81;101795.00;5017300;28;20072;-68
2021/12/11 10:04:22;;;;;;;;;;;;;;;9.16;21.69;101786.50;5025539;28;20053;-66
2021/12/11 10:07:25;;;;;;;9.00;5.75;;;;;;;8.89;20.86;101779.81;4997576;28;19927;-64
2021/12/11 10:10:23;;;;;;;9.68;5.90;;;;;;;9.38;20.92;101775.41;5020456;28;20053;-69
2021/12/11 10:13:08;;;;;;;8.45;5.90;;;;;;;9.38;20.72;101770.13;5022797;28;20088;-65
2021/12/11 10:15:53;;;;;;;11.45;6.85;;;;;;;9.29;20.59;101779.66;5008199;28;20136;-65
2021/12/11 10:18:39;;;;;;;10.13;6.22;;;;;;;9.65;20.49;101776.75;5006679;28;20836;-66
2021/12/11 10:21:35;;;;;;;9.80;6.20;;;;;;;9.80;20.24;101775.19;5016355;28;20064;-70
2021/12/11 10:24:25;;;;;;;8.65;5.78;;;;;;;9.49;20.08;101772.94;5026432;28;20130;-68
2021/12/11 10:27:14;;;;;;;9.57;6.10;;;;;;;8.95;20.57;101770.22;5013121;28;20456;-68
2021/12/11 10:30:04;;;;;;;8.75;5.85;;;;;;;9.35;20.28;101779.78;5020918;28;20052;-69
2021/12/11 10:32:50;;;;;;;8.52;5.82;;;;;;;9.32;20.26;101779.72;5021616;28;20052;-68
2021/12/11 10:35:39;;;;;;;9.25;6.15;;;;;;;9.74;20.13;101779.53;5021966;28;20091;-69
2021/12/11 10:38:25;;;;;;;9.02;5.97;;;;;;;9.91;19.89;101772.69;5021831;28;20076;-68
2021/12/11 10:41:12;;;;;;;9.90;5.90;;;;;;;10.20;19.71;101766.97;5041354;28;20058;-66
2021/12/11 10:44:01;;;;;;;10.25;6.20;;;;;;;10.13;19.50;101775.69;5029576;28;20076;-69
2021/12/11 10:46:55;;;;;;;10.15;5.88;;;;;;;10.04;20.01;101762.31;5040697;28;20133;-69
2021/12/11 10:49:42;;;;;;;9.85;6.07;;;;;;;10.03;19.53;101762.28;5016215;28;20187;-69
2021/12/11 10:52:30;;;;;;;9.50;5.97;;;;;;;9.92;19.43;101761.25;5028796;28;20119;-68
2021/12/11 10:55:18;;;;;;;8.77;5.72;;;;;;;9.82;19.13;101748.72;5025562;28;20183;-67
2021/12/11 10:58:15;;;;;;;8.90;6.07;;;;;;;9.66;19.14;101744.97;5028149;28;20072;-68
2021/12/11 11:01:14;;;;;;;10.05;6.45;;;;;;;9.35;20.03;101748.88;5015031;28;20104;-65
2021/12/11 11:04:16;;;;;;;9.95;6.70;;;;;;;9.83;20.16;101751.41;5026389;28;20048;-65
2021/12/11 11:07:01;;;;;;;13.82;7.25;;;;;;;9.20;19.74;101745.09;5028061;28;20051;-67
2021/12/11 11:09:48;;;;;;;12.43;7.63;;;;;;;9.23;20.10;101753.97;5021253;28;20139;-68
2021/12/11 11:12:37;;;;;;;12.60;7.93;;;;;;;9.37;20.10;101747.16;5024451;28;20044;-69
2021/12/11 11:15:25;;;;;;;9.75;6.72;;;;;;;8.94;20.25;101749.03;5039475;28;20095;-67
2021/12/11 11:18:14;;;;;;;10.90;6.80;;;;;;;8.95;20.51;101754.34;5027090;28;20236;-68
2021/12/11 11:21:05;;;;;;;12.77;7.68;;;;;;;8.79;20.13;101751.41;5024829;28;20064;-70
2021/12/11 11:23:51;;;;;;;14.02;8.65;;;;;;;8.35;20.29;101753.16;5023971;28;20060;-68
2021/12/11 11:26:40;;;;;;;13.90;7.55;;;;;;;8.28;21.00;101747.75;5024968;28;20049;-68
2021/12/11 11:29:28;;;;;;;11.90;6.90;;;;;;;7.79;21.17;101744.88;5020126;28;20049;-69
2021/12/11 11:32:18;;;;;;;10.65;6.78;;;;;;;7.70;21.31;101740.28;5023579;28;20558;-68
2021/12/11 11:35:10;;;;;;;11.05;7.80;;;;;;;7.40;21.82;101734.25;5025331;28;20064;-68
2021/12/11 11:37:57;;;;;;;12.73;7.07;;;;;;;6.01;22.32;101736.63;5025290;28;20092;-70
2021/12/11 11:40:48;;;;;;;11.65;7.40;;;;;;;4.66;24.03;101734.78;5024078;28;20141;-67
2021/12/11 11:43:34;;;;;;;12.45;7.00;;;;;;;3.37;25.79;101724.63;5021850;28;20417;-68
2021/12/11 11:46:19;;;;;;;12.77;7.25;;;;;;;2.32;27.53;101725.38;5022985;28;20052;-67
2021/12/11 11:49:04;;;;;;;12.20;7.00;;;;;;;1.62;29.60;101723.91;5020004;28;20145;-71
2021/12/11 11:51:54;;;;;;;12.95;7.25;;;;;;;1.14;32.08;101728.56;5009048;28;20056;-65
2021/12/11 11:54:42;;;;;;;11.68;6.80;;;;;;;0.39;33.54;101723.00;5022055;28;20095;-68
2021/12/11 11:57:39;;;;;;;13.65;7.30;;;;;;;-0.27;36.40;101715.13;5026095;28;20179;-65
2021/12/11 12:00:35;;;;;;;14.77;7.88;;;;;;;-0.99;39.58;101716.28;5032282;28;20044;-64
2021/12/11 12:03:22;;;;;;;17.17;7.90;;;;;;;-1.32;42.16;101716.06;5023271;28;20441;-65
2021/12/11 12:06:12;;;;;;;13.52;6.93;;;;;;;-1.43;43.92;101706.72;5025467;28;20435;-63
2021/12/11 12:08:59;;;;;;;11.95;6.90;;;;;;;-2.15;46.68;101694.56;5017237;28;20123;-72
2021/12/11 12:11:45;;;;;;;11.73;6.43;;;;;;;-2.51;49.28;101706.22;5010553;28;20056;-72
2021/12/11 12:14:33;;;;;;;12.73;6.88;;;;;;;-3.01;51.42;101702.09;5025545;28;20064;-65
2021/12/11 12:17:22;;;;;;;15.43;6.60;;;;;;;-3.15;54.71;101689.97;5023015;28;20104;-65
2021/12/11 12:20:11;;;;;;;12.52;6.32;;;;;;;-3.74;58.42;101698.09;5024920;28;20060;-66
2021/12/11 12:22:58;;;;;;;15.73;7.63;;;;;;;-3.92;61.58;101702.03;5022446;28;20053;-68
2021/12/11 12:25:45;;;;;;;12.95;6.28;;;;;;;-3.85;63.24;101709.41;5020304;28;20416;-68
2021/12/11 12:28:31;;;;;;;14.65;7.03;;;;;;;-3.85;64.71;101706.84;5021958;28;20064;-67
2021/12/11 12:31:25;;;;;;;12.20;6.75;;;;;;;-3.98;66.35;101701.63;5011671;28;20056;-66
2021/12/11 12:34:13;;;;;;;12.93;6.15;;;;;;;-4.14;67.98;101710.81;5024794;28;20079;-74
2021/12/11 12:37:00;;;;;;;16.98;7.00;;;;;;;-4.47;69.45;101712.00;5018603;28;20223;-61
2021/12/11 12:39:50;;;;;;;12.75;5.93;;;;;;;-4.78;70.67;101708.91;5029065;28;20110;-60
2021/12/11 12:42:50;;;;;;;14.10;6.28;;;;;;;-5.05;72.92;101709.56;5023022;28;20123;-64
2021/12/11 12:45:45;;;;;;;13.00;6.30;;;;;;;-5.33;74.64;101710.88;5020609;28;20051;-62
2021/12/11 12:48:30;;;;;;;10.95;5.97;;;;;;;-5.36;76.11;101710.69;5024228;28;20048;-63
2021/12/11 12:51:16;;;;;;;15.15;6.53;;;;;;;-5.55;77.06;101712.72;5022834;28;20602;-73
2021/12/11 12:54:04;;;;;;;16.98;6.35;;;;;;;-5.58;78.56;101712.47;5020505;28;20107;-72
2021/12/11 12:57:15;;;;;;;11.85;6.50;;;;;;;-5.53;79.91;101716.28;5019442;28;20087;-64
2021/12/11 13:00:11;;;;;;;13.80;6.15;;;;;;;-5.61;80.28;101709.66;5021625;28;20087;-64
2021/12/11 13:03:07;;;;;;;15.30;6.20;;;;;;;-5.86;81.05;101700.00;5025437;28;20531;-66
2021/12/11 13:06:18;;;;;;;14.90;7.32;;;;;;;-5.98;82.57;101699.06;5027192;28;20048;-64
2021/12/11 13:09:13;;;;;;;15.32;6.13;;;;;;;-6.05;83.07;101697.72;5020158;28;20095;-62
2021/12/11 13:12:31;;;;;;;17.52;6.70;;;;;;;-6.10;83.79;101698.13;5029567;28;20094;-63
2021/12/11 13:15:42;;;;;;;17.67;7.82;;;;;;;-6.28;84.30;101691.59;5020362;28;20060;-61